Puropanmaru No.3 — JD3322 — position and weather

sailwx.info

Track history (hours):
 
Tides and Currents Weather Stations Pressure Air Temp Water Temp Dewpoint Dewpoint Depression Visibility Wind Speed Wind Dir Waves Ship Positions

Puropanmaru No.3

Last reported at 2015-Aug-01 07:33 UTC. Time now 2015-Aug-01 20:19 UTC.
Position N 35°05' E 139°36'.

Length 68 m; draft 4.5 m.

Type: Tanker. MMSI: 431003365.

Date/timePositionNaut miles runAvg speedWind from/ knotsBaromVisibWave heightAir tempDewpointWater temp
2015-Aug-01 07:33N 35°05' E 139°36'1212.0
2015-Aug-01 06:34N 35°13' E 139°46'1111.2
2015-Aug-01 05:34N 35°24' E 139°43'1212.1
2015-Aug-01 04:34N 35°31' E 139°55'7 7.1
2015-Aug-01 03:34N 35°32' E 140°03'0 0.0
2015-Aug-01 02:34N 35°32' E 140°03'0 0.0
2015-Aug-01 01:34N 35°32' E 140°03'0 0.0
2015-Aug-01 00:34N 35°32' E 140°03'1 0.9
2015-Jul-31 23:33N 35°33' E 140°03'2 1.9
2015-Jul-31 22:33N 35°33' E 140°05'0 0.0
2015-Jul-31 21:33N 35°33' E 140°05'0 0.0
2015-Jul-31 20:33N 35°33' E 140°05'0 0.0
2015-Jul-31 19:33N 35°33' E 140°05'0 0.0
2015-Jul-31 18:31N 35°33' E 140°05'0 0.1
2015-Jul-31 17:33N 35°33' E 140°05'0 0.0
2015-Jul-31 16:33N 35°33' E 140°05'0 0.0
2015-Jul-31 15:33N 35°33' E 140°05'0 0.0
2015-Jul-31 14:33N 35°33' E 140°05'0 0.0
2015-Jul-31 13:33N 35°33' E 140°05'0 0.0
2015-Jul-31 12:33N 35°33' E 140°05'0 0.0
2015-Jul-31 11:33N 35°33' E 140°05'0 0.0
2015-Jul-31 10:33N 35°33' E 140°05'0 0.0
2015-Jul-31 09:33N 35°33' E 140°05'0 0.0
2015-Jul-31 08:33N 35°33' E 140°05'0 0.0
2015-Jul-31 07:34N 35°33' E 140°05'0 0.0
2015-Jul-31 06:33N 35°33' E 140°05'0 0.0
2015-Jul-31 05:33N 35°33' E 140°05'0 0.0
2015-Jul-31 04:33N 35°33' E 140°05'0 0.0
2015-Jul-31 03:33N 35°33' E 140°05'0 0.0
2015-Jul-31 02:33N 35°33' E 140°05'0 0.0
2015-Jul-31 01:33N 35°33' E 140°05'0 0.0
2015-Jul-31 00:33N 35°33' E 140°05'0 0.0
2015-Jul-30 23:33N 35°33' E 140°05'0 0.1
2015-Jul-30 22:33N 35°33' E 140°05'0 0.3
2015-Jul-30 21:33N 35°33' E 140°04'1212.1
2015-Jul-30 20:34N 35°28' E 139°51'1211.6
2015-Jul-30 19:34N 35°18' E 139°45'1211.6
2015-Jul-30 18:33N 35°06' E 139°45'1212.5
2015-Jul-30 17:33N 34°54' E 139°47'1211.9
2015-Jul-30 16:32N 34°55' E 140°01'1913.0
2015-Jul-30 15:04N 35°04' E 140°21'713.6
2015-Jul-30 14:33N 35°09' E 140°28'1313.3
2015-Jul-30 13:34N 35°20' E 140°37'1312.9
2015-Jul-30 12:33N 35°31' E 140°46'1313.0
2015-Jul-30 11:33N 35°41' E 140°55'1313.0
2015-Jul-30 10:33N 35°53' E 140°48'6 6.4
2015-Jul-30 09:33N 35°54' E 140°41'1 0.7
2015-Jul-30 08:33N 35°54' E 140°41'5 0.5
2015-Jul-29 22:08N 35°58' E 140°44'0 0.1
2015-Jul-29 21:31N 35°58' E 140°44'0 0.0
2015-Jul-29 20:33N 35°58' E 140°44'0 0.0
2015-Jul-29 19:33N 35°58' E 140°44'0 0.0
2015-Jul-29 18:33N 35°58' E 140°44'0 0.0
2015-Jul-29 17:33N 35°58' E 140°44'0 0.0
2015-Jul-29 16:33N 35°58' E 140°44'0 0.0
2015-Jul-29 15:22N 35°58' E 140°44'0 0.1
2015-Jul-29 14:33N 35°58' E 140°44'0 0.0
2015-Jul-29 13:33N 35°58' E 140°44'1 0.5
2015-Jul-29 12:32N 35°58' E 140°44'1312.4
2015-Jul-29 11:31N 35°47' E 140°53'1111.0
2015-Jul-29 10:33N 35°37' E 140°51'1313.3
2015-Jul-29 09:33N 35°26' E 140°42'1413.5
2015-Jul-29 08:33N 35°15' E 140°33'2512.7
2015-Jul-29 06:34N 34°59' E 140°08'2010.1
2015-Jul-29 04:33N 35°00' E 139°44'1313.1
2015-Jul-29 03:33N 35°13' E 139°46'1211.8
2015-Jul-29 02:33N 35°25' E 139°44'1312.9
2015-Jul-29 01:33N 35°31' E 139°57'4 4.1
2015-Jul-29 00:33N 35°31' E 140°02'0 0.0
2015-Jul-28 23:33N 35°31' E 140°02'0 0.0
2015-Jul-28 22:33N 35°31' E 140°02'1 1.3
2015-Jul-28 21:33N 35°31' E 140°01'5 5.4
2015-Jul-28 20:33N 35°29' E 139°55'0 0.0
2015-Jul-28 19:33N 35°29' E 139°55'0 0.0
2015-Jul-28 18:33N 35°29' E 139°55'0 0.0
2015-Jul-28 17:33N 35°29' E 139°55'0 0.0
2015-Jul-28 16:33N 35°29' E 139°55'0 0.0
2015-Jul-28 15:33N 35°29' E 139°55'0 0.0
2015-Jul-28 14:33N 35°29' E 139°55'0 0.0
2015-Jul-28 13:33N 35°29' E 139°55'0 0.0
2015-Jul-28 12:33N 35°29' E 139°55'0 0.0
2015-Jul-28 11:33N 35°29' E 139°55'0 0.0
2015-Jul-28 10:33N 35°29' E 139°55'0 0.0
2015-Jul-28 09:33N 35°29' E 139°55'0 0.0
2015-Jul-28 08:33N 35°29' E 139°55'9 9.1
2015-Jul-28 07:33N 35°24' E 139°46'1211.7
2015-Jul-28 06:33N 35°12' E 139°47'1412.9
2015-Jul-28 05:29N 35°01' E 139°37'23410.9
2015-Jul-27 08:05N 34°08' E 134°60'1812.0
2015-Jul-27 06:33N 34°26' E 135°01'1110.8
2015-Jul-27 05:33N 34°37' E 135°01'1312.3
2015-Jul-27 04:32N 34°41' E 134°46'232 5.4
2015-Jul-25 09:25N 35°01' E 139°27'1011.5
2015-Jul-25 08:33N 35°06' E 139°38'1212.1
2015-Jul-25 07:33N 35°16' E 139°46'1110.9
2015-Jul-25 06:33N 35°26' E 139°46'5 5.0
2015-Jul-25 05:33N 35°31' E 139°46'0 0.0
2015-Jul-25 04:33N 35°31' E 139°46'0 0.0
2015-Jul-25 03:33N 35°31' E 139°46'0 0.0
2015-Jul-25 02:33N 35°31' E 139°46'0 0.0
2015-Jul-25 01:33N 35°31' E 139°46'4 3.7
2015-Jul-25 00:33N 35°29' E 139°49'0 0.0
2015-Jul-24 23:33N 35°29' E 139°49'0 0.0
2015-Jul-24 22:33N 35°29' E 139°49'0 0.0
2015-Jul-24 21:34N 35°29' E 139°49'0 0.0
2015-Jul-24 20:33N 35°29' E 139°49'0 0.0
2015-Jul-24 19:33N 35°29' E 139°49'0 0.0
2015-Jul-24 18:34N 35°29' E 139°49'0 0.0
2015-Jul-24 17:33N 35°29' E 139°49'0 0.0
2015-Jul-24 16:33N 35°29' E 139°49'0 0.0
2015-Jul-24 15:34N 35°29' E 139°49'0 0.0
2015-Jul-24 14:33N 35°29' E 139°49'0 0.0
2015-Jul-24 13:33N 35°29' E 139°49'0 0.0
2015-Jul-24 12:33N 35°29' E 139°49'0 0.1
2015-Jul-24 11:33N 35°29' E 139°49'0 0.1
2015-Jul-24 10:33N 35°29' E 139°49'0 0.0
2015-Jul-24 09:33N 35°29' E 139°49'0 0.0
2015-Jul-24 08:33N 35°29' E 139°49'0 0.0
2015-Jul-24 07:33N 35°29' E 139°49'8 7.9
2015-Jul-24 06:33N 35°22' E 139°45'1212.0
2015-Jul-24 05:33N 35°10' E 139°46'1313.0
2015-Jul-24 04:34N 34°60' E 139°36'  
Track history (hours):
 
Tides and Currents Weather Stations Pressure Air Temp Water Temp Dewpoint Dewpoint Depression Visibility Wind Speed Wind Dir Waves Ship Positions

Puropanmaru No.3

Last reported at 2015-Aug-01 07:33 UTC. Time now 2015-Aug-01 20:19 UTC.
Position N 35°05' E 139°36'.

Length 68 m; draft 4.5 m.

Type: Tanker. MMSI: 431003365.

Date/timePositionNaut miles runAvg speedWind from/ knotsBaromVisibWave heightAir tempDewpointWater temp
2015-Aug-01 07:33N 35°05' E 139°36'1212.0
2015-Aug-01 06:34N 35°13' E 139°46'1111.2
2015-Aug-01 05:34N 35°24' E 139°43'1212.1
2015-Aug-01 04:34N 35°31' E 139°55'7 7.1
2015-Aug-01 03:34N 35°32' E 140°03'0 0.0
2015-Aug-01 02:34N 35°32' E 140°03'0 0.0
2015-Aug-01 01:34N 35°32' E 140°03'0 0.0
2015-Aug-01 00:34N 35°32' E 140°03'1 0.9
2015-Jul-31 23:33N 35°33' E 140°03'2 1.9
2015-Jul-31 22:33N 35°33' E 140°05'0 0.0
2015-Jul-31 21:33N 35°33' E 140°05'0 0.0
2015-Jul-31 20:33N 35°33' E 140°05'0 0.0
2015-Jul-31 19:33N 35°33' E 140°05'0 0.0
2015-Jul-31 18:31N 35°33' E 140°05'0 0.1
2015-Jul-31 17:33N 35°33' E 140°05'0 0.0
2015-Jul-31 16:33N 35°33' E 140°05'0 0.0
2015-Jul-31 15:33N 35°33' E 140°05'0 0.0
2015-Jul-31 14:33N 35°33' E 140°05'0 0.0
2015-Jul-31 13:33N 35°33' E 140°05'0 0.0
2015-Jul-31 12:33N 35°33' E 140°05'0 0.0
2015-Jul-31 11:33N 35°33' E 140°05'0 0.0
2015-Jul-31 10:33N 35°33' E 140°05'0 0.0
2015-Jul-31 09:33N 35°33' E 140°05'0 0.0
2015-Jul-31 08:33N 35°33' E 140°05'0 0.0
2015-Jul-31 07:34N 35°33' E 140°05'0 0.0
2015-Jul-31 06:33N 35°33' E 140°05'0 0.0
2015-Jul-31 05:33N 35°33' E 140°05'0 0.0
2015-Jul-31 04:33N 35°33' E 140°05'0 0.0
2015-Jul-31 03:33N 35°33' E 140°05'0 0.0
2015-Jul-31 02:33N 35°33' E 140°05'0 0.0
2015-Jul-31 01:33N 35°33' E 140°05'0 0.0
2015-Jul-31 00:33N 35°33' E 140°05'0 0.0
2015-Jul-30 23:33N 35°33' E 140°05'0 0.1
2015-Jul-30 22:33N 35°33' E 140°05'0 0.3
2015-Jul-30 21:33N 35°33' E 140°04'1212.1
2015-Jul-30 20:34N 35°28' E 139°51'1211.6
2015-Jul-30 19:34N 35°18' E 139°45'1211.6
2015-Jul-30 18:33N 35°06' E 139°45'1212.5
2015-Jul-30 17:33N 34°54' E 139°47'1211.9
2015-Jul-30 16:32N 34°55' E 140°01'1913.0
2015-Jul-30 15:04N 35°04' E 140°21'713.6
2015-Jul-30 14:33N 35°09' E 140°28'1313.3
2015-Jul-30 13:34N 35°20' E 140°37'1312.9
2015-Jul-30 12:33N 35°31' E 140°46'1313.0
2015-Jul-30 11:33N 35°41' E 140°55'1313.0
2015-Jul-30 10:33N 35°53' E 140°48'6 6.4
2015-Jul-30 09:33N 35°54' E 140°41'1 0.7
2015-Jul-30 08:33N 35°54' E 140°41'5 0.5
2015-Jul-29 22:08N 35°58' E 140°44'0 0.1
2015-Jul-29 21:31N 35°58' E 140°44'0 0.0
2015-Jul-29 20:33N 35°58' E 140°44'0 0.0
2015-Jul-29 19:33N 35°58' E 140°44'0 0.0
2015-Jul-29 18:33N 35°58' E 140°44'0 0.0
2015-Jul-29 17:33N 35°58' E 140°44'0 0.0
2015-Jul-29 16:33N 35°58' E 140°44'0 0.0
2015-Jul-29 15:22N 35°58' E 140°44'0 0.1
2015-Jul-29 14:33N 35°58' E 140°44'0 0.0
2015-Jul-29 13:33N 35°58' E 140°44'1 0.5
2015-Jul-29 12:32N 35°58' E 140°44'1312.4
2015-Jul-29 11:31N 35°47' E 140°53'1111.0
2015-Jul-29 10:33N 35°37' E 140°51'1313.3
2015-Jul-29 09:33N 35°26' E 140°42'1413.5
2015-Jul-29 08:33N 35°15' E 140°33'2512.7
2015-Jul-29 06:34N 34°59' E 140°08'2010.1
2015-Jul-29 04:33N 35°00' E 139°44'1313.1
2015-Jul-29 03:33N 35°13' E 139°46'1211.8
2015-Jul-29 02:33N 35°25' E 139°44'1312.9
2015-Jul-29 01:33N 35°31' E 139°57'4 4.1
2015-Jul-29 00:33N 35°31' E 140°02'0 0.0
2015-Jul-28 23:33N 35°31' E 140°02'0 0.0
2015-Jul-28 22:33N 35°31' E 140°02'1 1.3
2015-Jul-28 21:33N 35°31' E 140°01'5 5.4
2015-Jul-28 20:33N 35°29' E 139°55'0 0.0
2015-Jul-28 19:33N 35°29' E 139°55'0 0.0
2015-Jul-28 18:33N 35°29' E 139°55'0 0.0
2015-Jul-28 17:33N 35°29' E 139°55'0 0.0
2015-Jul-28 16:33N 35°29' E 139°55'0 0.0
2015-Jul-28 15:33N 35°29' E 139°55'0 0.0
2015-Jul-28 14:33N 35°29' E 139°55'0 0.0
2015-Jul-28 13:33N 35°29' E 139°55'0 0.0
2015-Jul-28 12:33N 35°29' E 139°55'0 0.0
2015-Jul-28 11:33N 35°29' E 139°55'0 0.0
2015-Jul-28 10:33N 35°29' E 139°55'0 0.0
2015-Jul-28 09:33N 35°29' E 139°55'0 0.0
2015-Jul-28 08:33N 35°29' E 139°55'9 9.1
2015-Jul-28 07:33N 35°24' E 139°46'1211.7
2015-Jul-28 06:33N 35°12' E 139°47'1412.9
2015-Jul-28 05:29N 35°01' E 139°37'23410.9
2015-Jul-27 08:05N 34°08' E 134°60'1812.0
2015-Jul-27 06:33N 34°26' E 135°01'1110.8
2015-Jul-27 05:33N 34°37' E 135°01'1312.3
2015-Jul-27 04:32N 34°41' E 134°46'232 5.4
2015-Jul-25 09:25N 35°01' E 139°27'1011.5
2015-Jul-25 08:33N 35°06' E 139°38'1212.1
2015-Jul-25 07:33N 35°16' E 139°46'1110.9
2015-Jul-25 06:33N 35°26' E 139°46'5 5.0
2015-Jul-25 05:33N 35°31' E 139°46'0 0.0
2015-Jul-25 04:33N 35°31' E 139°46'0 0.0
2015-Jul-25 03:33N 35°31' E 139°46'0 0.0
2015-Jul-25 02:33N 35°31' E 139°46'0 0.0
2015-Jul-25 01:33N 35°31' E 139°46'4 3.7
2015-Jul-25 00:33N 35°29' E 139°49'0 0.0
2015-Jul-24 23:33N 35°29' E 139°49'0 0.0
2015-Jul-24 22:33N 35°29' E 139°49'0 0.0
2015-Jul-24 21:34N 35°29' E 139°49'0 0.0
2015-Jul-24 20:33N 35°29' E 139°49'0 0.0
2015-Jul-24 19:33N 35°29' E 139°49'0 0.0
2015-Jul-24 18:34N 35°29' E 139°49'0 0.0
2015-Jul-24 17:33N 35°29' E 139°49'0 0.0
2015-Jul-24 16:33N 35°29' E 139°49'0 0.0
2015-Jul-24 15:34N 35°29' E 139°49'0 0.0
2015-Jul-24 14:33N 35°29' E 139°49'0 0.0
2015-Jul-24 13:33N 35°29' E 139°49'0 0.0
2015-Jul-24 12:33N 35°29' E 139°49'0 0.1
2015-Jul-24 11:33N 35°29' E 139°49'0 0.1
2015-Jul-24 10:33N 35°29' E 139°49'0 0.0
2015-Jul-24 09:33N 35°29' E 139°49'0 0.0
2015-Jul-24 08:33N 35°29' E 139°49'0 0.0
2015-Jul-24 07:33N 35°29' E 139°49'8 7.9
2015-Jul-24 06:33N 35°22' E 139°45'1212.0
2015-Jul-24 05:33N 35°10' E 139°46'1313.0
2015-Jul-24 04:34N 34°60' E 139°36'  

Dump ship's entire track history